Time;durP1;ratioP1;P1;durP2;ratioP2;P2;SDS_P1;SDS_P2;PMS_P1;PMS_P2;Temp;Humidity;BMP_temperature;BMP_pressure;BME280_temperature;BME280_humidity;BME280_pressure;Samples;Min_cycle;Max_cycle;Signal;HPM_P1;HPM_P2
2024/03/02 00:02:16;;;;;;;17.40;13.33;;;;;;;-146.29;100.00;59205.81;5029866;28;20262;-70
2024/03/02 00:04:44;;;;;;;13.50;10.73;;;;;;;-146.29;100.00;59205.81;5039520;28;20262;-70
2024/03/02 00:07:09;;;;;;;12.53;9.90;;;;;;;-146.29;100.00;59205.81;5029663;28;20422;-71
2024/03/02 00:09:36;;;;;;;19.30;14.33;;;;;;;-146.29;100.00;59205.81;5034140;28;20496;-69
2024/03/02 00:12:02;;;;;;;14.20;10.50;;;;;;;-146.29;100.00;59205.81;5029188;28;20190;-71
2024/03/02 00:14:29;;;;;;;14.13;10.40;;;;;;;-146.29;100.00;59205.81;5005618;28;20427;-70
2024/03/02 00:16:55;;;;;;;12.63;9.97;;;;;;;-146.29;100.00;59205.81;5028163;28;20422;-69
2024/03/02 00:19:21;;;;;;;12.97;9.93;;;;;;;-146.29;100.00;59205.81;5027932;28;20458;-70
2024/03/02 00:21:47;;;;;;;30.07;21.20;;;;;;;-146.29;100.00;59205.81;5035730;28;20939;-73
2024/03/02 00:24:32;;;;;;;14.20;10.73;;;;;;;-146.29;100.00;59205.81;5029380;28;20648;-70
2024/03/02 00:26:58;;;;;;;54.33;32.73;;;;;;;-146.29;100.00;59205.81;5028701;28;20426;-71
2024/03/02 00:29:24;;;;;;;35.20;21.93;;;;;;;-146.29;100.00;59205.81;5029272;28;20442;-70
2024/03/02 00:31:50;;;;;;;20.40;12.00;;;;;;;-146.29;100.00;59205.81;5026997;28;20194;-70
2024/03/02 00:34:16;;;;;;;32.93;21.17;;;;;;;-146.29;100.00;59205.81;5029793;28;20418;-72
2024/03/02 00:36:42;;;;;;;15.50;12.47;;;;;;;-146.29;100.00;59205.81;5035104;28;20207;-73
2024/03/02 00:39:07;;;;;;;16.97;11.10;;;;;;;-146.29;100.00;59205.81;5036920;28;20442;-70
2024/03/02 00:41:33;;;;;;;13.50;9.57;;;;;;;-146.29;100.00;59205.81;5029727;28;20295;-70
2024/03/02 00:44:06;;;;;;;14.10;10.40;;;;;;;-146.29;100.00;59205.81;5031358;28;20218;-73
2024/03/02 00:46:39;;;;;;;24.17;16.40;;;;;;;-146.29;100.00;59205.81;5031617;28;20245;-71
2024/03/02 00:49:21;;;;;;;51.23;31.87;;;;;;;-146.29;100.00;59205.81;5033206;28;20454;-72
2024/03/02 00:51:51;;;;;;;40.23;26.13;;;;;;;-146.29;100.00;59205.81;5030946;28;20759;-73
2024/03/02 00:54:25;;;;;;;20.33;14.30;;;;;;;-146.29;100.00;59205.81;5038067;28;20469;-71
2024/03/02 00:56:51;;;;;;;35.80;23.73;;;;;;;-146.29;100.00;59205.81;5035684;28;20459;-70
2024/03/02 00:59:17;;;;;;;13.23;10.33;;;;;;;-146.29;100.00;59205.81;5046179;28;20450;-73
2024/03/02 01:01:43;;;;;;;22.90;15.80;;;;;;;-146.29;100.00;59205.81;5029517;28;20476;-72
2024/03/02 01:04:08;;;;;;;31.87;20.33;;;;;;;-146.29;100.00;59205.81;5046753;28;20180;-71
2024/03/02 01:06:35;;;;;;;17.30;11.80;;;;;;;-146.29;100.00;59205.81;5030890;28;20669;-70
2024/03/02 01:09:00;;;;;;;41.47;26.13;;;;;;;-146.29;100.00;59205.81;5033911;28;20699;-71
2024/03/02 01:11:26;;;;;;;20.27;13.40;;;;;;;-146.29;100.00;59205.81;5034163;28;20423;-71
2024/03/02 01:13:52;;;;;;;34.27;21.60;;;;;;;-146.29;100.00;59205.81;5026487;28;20295;-71
2024/03/02 01:16:17;;;;;;;49.20;30.13;;;;;;;-146.29;100.00;59205.81;5032683;28;20180;-71
2024/03/02 01:18:43;;;;;;;21.30;14.87;;;;;;;-146.29;100.00;59205.81;5034520;28;20278;-73
2024/03/02 01:21:08;;;;;;;17.37;12.20;;;;;;;-146.29;100.00;59205.81;5015951;28;20230;-71
2024/03/02 01:23:34;;;;;;;10.90;8.67;;;;;;;-146.29;100.00;59205.81;5032893;28;20198;-69
2024/03/02 01:25:59;;;;;;;14.70;10.43;;;;;;;-146.29;100.00;59205.81;5031219;28;20238;-72
2024/03/02 01:28:25;;;;;;;45.03;29.47;;;;;;;-146.29;100.00;59205.81;5031285;28;20175;-71
2024/03/02 01:30:50;;;;;;;35.60;23.63;;;;;;;-146.29;100.00;59205.81;5029828;28;20598;-69
2024/03/02 01:33:19;;;;;;;27.77;19.30;;;;;;;-146.29;100.00;59205.81;5030829;28;20187;-70
2024/03/02 01:35:45;;;;;;;24.00;15.93;;;;;;;-146.29;100.00;59205.81;5032192;28;20554;-71
2024/03/02 01:38:10;;;;;;;22.70;16.20;;;;;;;-146.29;100.00;59205.81;5035336;28;20501;-71
2024/03/02 01:40:37;;;;;;;12.60;9.20;;;;;;;-146.29;100.00;59205.81;5029770;28;20302;-71
2024/03/02 01:43:04;;;;;;;21.80;14.70;;;;;;;-146.29;100.00;59205.81;5032723;28;20234;-71
2024/03/02 01:45:29;;;;;;;29.67;18.70;;;;;;;-146.29;100.00;59205.81;5021411;28;20552;-71
2024/03/02 01:47:55;;;;;;;25.87;16.40;;;;;;;-146.29;100.00;59205.81;5030472;28;20526;-71
2024/03/02 01:50:31;;;;;;;14.13;9.93;;;;;;;-146.29;100.00;59205.81;5029056;28;20204;-70
2024/03/02 01:52:57;;;;;;;12.03;8.97;;;;;;;-146.29;100.00;59205.81;5030450;28;20217;-71
2024/03/02 01:55:23;;;;;;;42.80;26.17;;;;;;;-146.29;100.00;59205.81;5035188;28;20446;-71
2024/03/02 01:57:50;;;;;;;22.70;16.20;;;;;;;-146.29;100.00;59205.81;5035191;28;20191;-71
2024/03/02 02:00:16;;;;;;;21.93;14.60;;;;;;;-146.29;100.00;59205.81;5033983;28;20230;-72
2024/03/02 02:02:43;;;;;;;13.20;10.53;;;;;;;-146.29;100.00;59205.81;5014534;28;20419;-71
2024/03/02 02:05:09;;;;;;;13.20;10.10;;;;;;;-146.29;100.00;59205.81;5029959;28;20445;-72
2024/03/02 02:07:35;;;;;;;14.47;11.40;;;;;;;-146.29;100.00;59205.81;5031820;28;20426;-72
2024/03/02 02:10:01;;;;;;;11.50;8.67;;;;;;;-146.29;100.00;59205.81;5047604;28;20445;-71
2024/03/02 02:12:26;;;;;;;11.83;10.17;;;;;;;-146.29;100.00;59205.81;5039163;28;20758;-71
2024/03/02 02:14:52;;;;;;;14.80;9.80;;;;;;;-146.29;100.00;59205.81;5034295;28;20586;-73
2024/03/02 02:17:17;;;;;;;13.77;10.57;;;;;;;-146.29;100.00;59205.81;5031535;28;20609;-70
2024/03/02 02:19:43;;;;;;;12.27;9.57;;;;;;;-146.29;100.00;59205.81;5030178;28;20265;-71
2024/03/02 02:22:11;;;;;;;11.63;9.00;;;;;;;-146.29;100.00;59205.81;5035332;28;20223;-71
2024/03/02 02:24:42;;;;;;;32.53;19.50;;;;;;;-146.29;100.00;59205.81;5049134;28;20682;-70
2024/03/02 02:27:08;;;;;;;13.00;9.83;;;;;;;-146.29;100.00;59205.81;5048996;28;20449;-71
2024/03/02 02:29:34;;;;;;;19.47;13.83;;;;;;;-146.29;100.00;59205.81;5022181;28;20450;-71
2024/03/02 02:31:59;;;;;;;16.23;12.03;;;;;;;-146.29;100.00;59205.81;5030417;28;20488;-71
2024/03/02 02:34:25;;;;;;;16.00;10.97;;;;;;;-146.29;100.00;59205.81;5054303;28;20260;-69
2024/03/02 02:36:50;;;;;;;14.57;10.27;;;;;;;-146.29;100.00;59205.81;5034806;28;20657;-72
2024/03/02 02:39:17;;;;;;;13.60;10.10;;;;;;;-146.29;100.00;59205.81;5033891;28;20210;-71
2024/03/02 02:41:43;;;;;;;15.47;11.07;;;;;;;-146.29;100.00;59205.81;5016120;28;20222;-72
2024/03/02 02:44:08;;;;;;;12.27;9.30;;;;;;;-146.29;100.00;59205.81;5039618;28;20498;-72
2024/03/02 02:46:33;;;;;;;25.97;12.30;;;;;;;-146.29;100.00;59205.81;5034780;28;20188;-72
2024/03/02 02:48:59;;;;;;;14.80;10.07;;;;;;;-146.29;100.00;59205.81;5025553;28;20254;-70
2024/03/02 02:51:25;;;;;;;16.53;11.90;;;;;;;-146.29;100.00;59205.81;5036111;28;20202;-70
2024/03/02 02:53:51;;;;;;;13.93;10.33;;;;;;;-146.29;100.00;59205.81;5037058;28;20210;-70
2024/03/02 02:56:17;;;;;;;12.70;10.40;;;;;;;-146.29;100.00;59205.81;5014980;28;20457;-70
2024/03/02 02:58:42;;;;;;;18.23;10.10;;;;;;;-146.29;100.00;59205.81;5048464;28;20439;-72
2024/03/02 03:01:08;;;;;;;13.77;10.40;;;;;;;-146.29;100.00;59205.81;5031637;28;20282;-71
2024/03/02 03:03:33;;;;;;;16.97;11.40;;;;;;;-146.29;100.00;59205.81;5040522;28;20241;-72
2024/03/02 03:05:59;;;;;;;14.30;10.70;;;;;;;-146.29;100.00;59205.81;5011837;28;20267;-71
2024/03/02 03:08:24;;;;;;;13.70;10.57;;;;;;;-146.29;100.00;59205.81;5030496;28;20179;-70
2024/03/02 03:10:50;;;;;;;19.33;11.53;;;;;;;-146.29;100.00;59205.81;5037958;28;20215;-70
2024/03/02 03:13:15;;;;;;;15.40;10.50;;;;;;;-146.29;100.00;59205.81;5033512;28;20205;-72
2024/03/02 03:15:41;;;;;;;14.47;10.83;;;;;;;-146.29;100.00;59205.81;5035202;28;20191;-71
2024/03/02 03:18:07;;;;;;;14.17;10.63;;;;;;;-146.29;100.00;59205.81;5031867;28;20188;-70
2024/03/02 03:20:33;;;;;;;15.37;11.60;;;;;;;-146.29;100.00;59205.81;5026770;28;20215;-71
2024/03/02 03:22:59;;;;;;;14.60;11.30;;;;;;;-146.29;100.00;59205.81;5013994;28;20950;-71
2024/03/02 03:25:24;;;;;;;17.60;12.00;;;;;;;-146.29;100.00;59205.81;5038364;28;21165;-70
2024/03/02 03:27:52;;;;;;;16.07;10.90;;;;;;;-146.29;100.00;59205.81;5041055;28;20197;-71
2024/03/02 03:30:18;;;;;;;16.20;11.17;;;;;;;-146.29;100.00;59205.81;5038765;28;20845;-69
2024/03/02 03:32:43;;;;;;;16.63;11.90;;;;;;;-146.29;100.00;59205.81;5029518;28;20521;-73
2024/03/02 03:35:09;;;;;;;12.20;10.47;;;;;;;-146.29;100.00;59205.81;5033709;28;20434;-71
2024/03/02 03:37:35;;;;;;;15.40;11.00;;;;;;;-146.29;100.00;59205.81;5034936;28;20211;-72
2024/03/02 03:40:09;;;;;;;14.90;11.33;;;;;;;-146.29;100.00;59205.81;5042705;28;20210;-71
2024/03/02 03:42:38;;;;;;;15.90;11.90;;;;;;;-146.29;100.00;59205.81;5032785;28;20460;-73
2024/03/02 03:45:05;;;;;;;15.80;11.50;;;;;;;-146.29;100.00;59205.81;5036050;28;20902;-71
2024/03/02 03:47:33;;;;;;;15.50;10.90;;;;;;;-146.29;100.00;59205.81;5033347;28;20502;-72
2024/03/02 03:49:59;;;;;;;14.37;10.70;;;;;;;-146.29;100.00;59205.81;5020501;28;20446;-72
2024/03/02 03:52:24;;;;;;;16.60;11.17;;;;;;;-146.29;100.00;59205.81;5032807;28;20433;-71
2024/03/02 03:54:50;;;;;;;16.23;11.10;;;;;;;-146.29;100.00;59205.81;5033193;28;20237;-71
2024/03/02 03:57:16;;;;;;;13.73;10.73;;;;;;;-146.29;100.00;59205.81;5030786;28;20179;-72
2024/03/02 03:59:42;;;;;;;18.83;11.63;;;;;;;-146.29;100.00;59205.81;5030032;28;20227;-71
2024/03/02 04:02:08;;;;;;;16.67;11.83;;;;;;;-146.29;100.00;59205.81;5029217;28;20218;-72
2024/03/02 04:04:33;;;;;;;15.47;12.37;;;;;;;-146.29;100.00;59205.81;5032220;28;20549;-73
2024/03/02 04:06:59;;;;;;;17.73;12.40;;;;;;;-146.29;100.00;59205.81;5033094;28;20187;-72
2024/03/02 04:09:25;;;;;;;17.33;11.90;;;;;;;-146.29;100.00;59205.81;5045634;28;20207;-70
2024/03/02 04:11:51;;;;;;;20.20;13.50;;;;;;;-146.29;100.00;59205.81;5035566;28;20243;-69
2024/03/02 04:14:16;;;;;;;14.70;10.93;;;;;;;-146.29;100.00;59205.81;5011698;28;21068;-69
2024/03/02 04:16:42;;;;;;;17.27;12.20;;;;;;;-146.29;100.00;59205.81;5029838;28;20649;-70
2024/03/02 04:19:07;;;;;;;16.70;11.37;;;;;;;-146.29;100.00;59205.81;5029113;28;20645;-69
2024/03/02 04:21:33;;;;;;;16.93;12.43;;;;;;;-146.29;100.00;59205.81;5011423;28;20211;-71
2024/03/02 04:23:59;;;;;;;17.83;12.07;;;;;;;-146.29;100.00;59205.81;5039644;28;20191;-70
2024/03/02 04:26:27;;;;;;;15.70;11.23;;;;;;;-146.29;100.00;59205.81;5028681;28;20194;-70
2024/03/02 04:28:53;;;;;;;16.30;11.53;;;;;;;-146.29;100.00;59205.81;5027137;28;20194;-70
2024/03/02 04:31:19;;;;;;;15.47;11.67;;;;;;;-146.29;100.00;59205.81;5030033;28;20426;-69
2024/03/02 04:33:45;;;;;;;15.30;11.23;;;;;;;-146.29;100.00;59205.81;5028470;28;21034;-70
2024/03/02 04:36:11;;;;;;;18.17;11.97;;;;;;;-146.29;100.00;59205.81;5060188;28;20426;-70
2024/03/02 04:38:37;;;;;;;15.97;11.97;;;;;;;-146.29;100.00;59205.81;5019631;28;20172;-72
2024/03/02 04:41:03;;;;;;;27.03;16.60;;;;;;;-146.29;100.00;59205.81;5028561;28;20215;-71
2024/03/02 04:43:29;;;;;;;14.90;11.03;;;;;;;-146.29;100.00;59205.81;5027581;28;20488;-72
2024/03/02 04:45:54;;;;;;;21.03;13.67;;;;;;;-146.29;100.00;59205.81;5031899;28;21194;-71
2024/03/02 04:48:22;;;;;;;15.17;10.60;;;;;;;-146.29;100.00;59205.81;5031056;28;20758;-71
2024/03/02 04:50:47;;;;;;;17.77;10.00;;;;;;;-146.29;100.00;59205.81;5029838;28;20203;-71
2024/03/02 04:53:12;;;;;;;15.73;12.00;;;;;;;-146.29;100.00;59205.81;5037493;28;20529;-71
2024/03/02 04:58:06;;;;;;;22.10;14.00;;;;;;;-146.29;100.00;59205.81;5023615;28;20234;-70
2024/03/02 05:00:32;;;;;;;17.77;11.50;;;;;;;-146.29;100.00;59205.81;5036079;28;20470;-69
2024/03/02 05:02:58;;;;;;;25.50;16.30;;;;;;;-146.29;100.00;59205.81;5030315;28;20184;-69
2024/03/02 05:05:23;;;;;;;21.00;12.17;;;;;;;-146.29;100.00;59205.81;5023125;28;20437;-69
2024/03/02 05:07:49;;;;;;;21.23;13.83;;;;;;;-146.29;100.00;59205.81;5028327;28;20527;-70
2024/03/02 05:10:14;;;;;;;18.73;12.27;;;;;;;-146.29;100.00;59205.81;5025891;28;20210;-70
2024/03/02 05:15:09;;;;;;;15.10;11.27;;;;;;;-146.29;100.00;59205.81;5021286;28;20246;-70
2024/03/02 05:17:39;;;;;;;17.90;10.77;;;;;;;-146.29;100.00;59205.81;5030138;28;20504;-71
2024/03/02 05:20:08;;;;;;;16.10;11.40;;;;;;;-146.29;100.00;59205.81;4992403;28;20478;-69
2024/03/02 05:22:34;;;;;;;17.40;12.60;;;;;;;-146.29;100.00;59205.81;5031059;28;20422;-69
2024/03/02 05:25:00;;;;;;;19.10;12.10;;;;;;;-146.29;100.00;59205.81;5015783;28;20690;-71
2024/03/02 05:27:27;;;;;;;16.97;10.90;;;;;;;-146.29;100.00;59205.81;5019355;28;20422;-69
2024/03/02 05:29:52;;;;;;;15.03;11.07;;;;;;;-146.29;100.00;59205.81;5026151;28;20994;-72
2024/03/02 05:32:18;;;;;;;17.60;11.77;;;;;;;-146.29;100.00;59205.81;5029131;28;20438;-71
2024/03/02 05:34:43;;;;;;;14.70;10.50;;;;;;;-146.29;100.00;59205.81;5022973;28;20191;-71
2024/03/02 05:37:08;;;;;;;16.23;11.97;;;;;;;-146.29;100.00;59205.81;5033513;28;20188;-71
2024/03/02 05:39:34;;;;;;;15.53;11.73;;;;;;;-146.29;100.00;59205.81;5020735;28;20291;-71
2024/03/02 05:41:59;;;;;;;16.83;11.53;;;;;;;-146.29;100.00;59205.81;5038460;28;20188;-71
2024/03/02 05:44:25;;;;;;;16.40;12.10;;;;;;;-146.29;100.00;59205.81;5034280;28;20179;-69
2024/03/02 05:46:50;;;;;;;16.30;12.40;;;;;;;-146.29;100.00;59205.81;5026934;28;20184;-72
2024/03/02 05:49:16;;;;;;;20.93;14.37;;;;;;;-146.29;100.00;59205.81;5020725;28;20269;-70
2024/03/02 05:51:41;;;;;;;19.80;11.87;;;;;;;-146.29;100.00;59205.81;5027306;28;20704;-70
2024/03/02 05:54:07;;;;;;;21.07;13.80;;;;;;;-146.29;100.00;59205.81;5009597;28;20188;-73
2024/03/02 05:56:32;;;;;;;19.10;12.43;;;;;;;-146.29;100.00;59205.81;5023852;28;20767;-71
2024/03/02 05:59:13;;;;;;;17.90;11.80;;;;;;;-146.29;100.00;59205.81;5023993;28;20188;-70
2024/03/02 06:01:39;;;;;;;18.10;11.70;;;;;;;-146.29;100.00;59205.81;5026338;28;20222;-70
2024/03/02 06:04:05;;;;;;;18.23;11.97;;;;;;;-146.29;100.00;59205.81;5026069;28;20434;-71
2024/03/02 06:06:33;;;;;;;17.03;12.73;;;;;;;-146.29;100.00;59205.81;5038455;28;20437;-71
2024/03/02 06:09:05;;;;;;;20.37;12.63;;;;;;;-146.29;100.00;59205.81;5026426;28;20326;-71
2024/03/02 06:11:30;;;;;;;18.30;12.63;;;;;;;-146.29;100.00;59205.81;5026362;28;20457;-70
2024/03/02 06:13:56;;;;;;;16.67;11.77;;;;;;;-146.29;100.00;59205.81;5023321;28;20976;-71
2024/03/02 06:16:21;;;;;;;17.17;12.07;;;;;;;-146.29;100.00;59205.81;5019966;28;20237;-71
2024/03/02 06:18:47;;;;;;;18.23;12.53;;;;;;;-146.29;100.00;59205.81;5029299;28;20267;-72
2024/03/02 06:21:12;;;;;;;21.90;12.73;;;;;;;-146.29;100.00;59205.81;5035471;28;20695;-73
2024/03/02 06:23:38;;;;;;;16.93;12.03;;;;;;;-146.29;100.00;59205.81;5012680;28;20272;-70
2024/03/02 06:26:03;;;;;;;16.67;11.70;;;;;;;-146.29;100.00;59205.81;5023641;28;20263;-70
2024/03/02 06:28:29;;;;;;;18.03;12.53;;;;;;;-146.29;100.00;59205.81;5005820;28;20431;-70
2024/03/02 06:30:54;;;;;;;15.17;11.10;;;;;;;-146.29;100.00;59205.81;5024231;28;20250;-70
2024/03/02 06:33:20;;;;;;;17.30;12.20;;;;;;;-146.29;100.00;59205.81;5025740;28;20192;-69
2024/03/02 06:35:45;;;;;;;17.63;11.93;;;;;;;-146.29;100.00;59205.81;5026796;28;20209;-72
2024/03/02 06:38:11;;;;;;;16.93;11.67;;;;;;;-146.29;100.00;59205.81;5037289;28;20180;-70
2024/03/02 06:40:38;;;;;;;19.30;12.00;;;;;;;-146.29;100.00;59205.81;5021094;28;20203;-70
2024/03/02 06:43:04;;;;;;;16.13;12.20;;;;;;;-146.29;100.00;59205.81;5027752;28;20184;-72
2024/03/02 06:45:30;;;;;;;20.60;13.33;;;;;;;-146.29;100.00;59205.81;5028650;28;20442;-69
2024/03/02 06:47:56;;;;;;;21.83;14.70;;;;;;;-146.29;100.00;59205.81;5001432;28;20463;-73
2024/03/02 06:50:22;;;;;;;21.60;14.60;;;;;;;-146.29;100.00;59205.81;5024698;28;20504;-71
2024/03/02 06:52:47;;;;;;;23.13;13.13;;;;;;;-146.29;100.00;59205.81;5041996;28;20243;-73
2024/03/02 06:55:13;;;;;;;22.30;14.27;;;;;;;-146.29;100.00;59205.81;5016533;28;20543;-72
2024/03/02 06:57:38;;;;;;;16.40;11.33;;;;;;;-146.29;100.00;59205.81;5030476;28;20180;-70
2024/03/02 07:00:05;;;;;;;18.60;13.50;;;;;;;-146.29;100.00;59205.81;5033886;28;20612;-72
2024/03/02 07:02:30;;;;;;;22.73;15.30;;;;;;;-146.29;100.00;59205.81;5031154;28;20528;-70
2024/03/02 07:04:56;;;;;;;17.97;12.40;;;;;;;-146.29;100.00;59205.81;5036930;28;20452;-71
2024/03/02 07:07:22;;;;;;;20.50;12.40;;;;;;;-146.29;100.00;59205.81;5027106;28;20192;-70
2024/03/02 07:09:48;;;;;;;26.17;15.27;;;;;;;-146.29;100.00;59205.81;5027211;28;20222;-71
2024/03/02 07:12:13;;;;;;;18.17;10.93;;;;;;;-146.29;100.00;59205.81;5036823;28;20664;-71
2024/03/02 07:15:29;;;;;;;13.50;10.00;;;;;;;-146.29;100.00;59205.81;5012676;28;20594;-73
2024/03/02 07:17:25;;;;;;;13.60;10.50;;;;;;;-146.29;100.00;59205.81;5026063;28;20459;-72
2024/03/02 07:19:51;;;;;;;14.47;9.70;;;;;;;-146.29;100.00;59205.81;5011674;28;20442;-72
2024/03/02 07:22:16;;;;;;;13.60;10.50;;;;;;;-146.29;100.00;59205.81;5033197;28;21036;-70
2024/03/02 07:24:42;;;;;;;17.27;11.03;;;;;;;-146.29;100.00;59205.81;5022496;28;20192;-72
2024/03/02 07:27:09;;;;;;;15.83;11.03;;;;;;;-146.29;100.00;59205.81;5029789;28;20196;-72
2024/03/02 07:29:34;;;;;;;14.20;10.20;;;;;;;-146.29;100.00;59205.81;5012054;28;20442;-71
2024/03/02 07:32:00;;;;;;;12.10;9.73;;;;;;;-146.29;100.00;59205.81;5043853;28;20500;-71
2024/03/02 07:34:25;;;;;;;14.33;9.53;;;;;;;-146.29;100.00;59205.81;5051945;28;20179;-71
2024/03/02 07:36:51;;;;;;;17.43;10.90;;;;;;;-146.29;100.00;59205.81;5033247;28;20788;-72
2024/03/02 07:39:16;;;;;;;13.00;8.90;;;;;;;-146.29;100.00;59205.81;5033490;28;20204;-71
2024/03/02 07:41:42;;;;;;;16.13;10.73;;;;;;;-146.29;100.00;59205.81;5027836;28;20211;-72
2024/03/02 07:44:07;;;;;;;12.57;9.50;;;;;;;-146.29;100.00;59205.81;5031559;28;20242;-71
2024/03/02 07:46:33;;;;;;;14.10;10.17;;;;;;;-146.29;100.00;59205.81;5034618;28;20184;-71
2024/03/02 07:48:58;;;;;;;12.90;9.03;;;;;;;-146.29;100.00;59205.81;5012322;28;20612;-71
2024/03/02 07:51:24;;;;;;;14.60;9.90;;;;;;;-146.29;100.00;59205.81;5030080;28;20275;-70
2024/03/02 07:53:49;;;;;;;13.43;9.83;;;;;;;-146.29;100.00;59205.81;5027713;28;20191;-72
2024/03/02 07:56:21;;;;;;;15.33;10.47;;;;;;;-146.29;100.00;59205.81;5028388;28;20191;-72
2024/03/02 07:58:48;;;;;;;14.80;10.00;;;;;;;-146.29;100.00;59205.81;5034377;28;20215;-72
2024/03/02 08:01:13;;;;;;;14.53;9.97;;;;;;;-146.29;100.00;59205.81;5028390;28;20459;-70
2024/03/02 08:03:38;;;;;;;14.57;9.63;;;;;;;-146.29;100.00;59205.81;5029629;28;20433;-71
2024/03/02 08:06:04;;;;;;;12.20;9.57;;;;;;;-146.29;100.00;59205.81;5027468;28;20261;-72
2024/03/02 08:08:29;;;;;;;12.57;9.73;;;;;;;-146.29;100.00;59205.81;5027467;28;20184;-72
2024/03/02 08:10:55;;;;;;;13.53;9.70;;;;;;;-146.29;100.00;59205.81;5031890;28;20208;-71
2024/03/02 08:13:20;;;;;;;13.63;9.70;;;;;;;-146.29;100.00;59205.81;5024557;28;20261;-71
2024/03/02 08:15:46;;;;;;;12.57;9.90;;;;;;;-146.29;100.00;59205.81;5026424;28;20213;-71
2024/03/02 08:18:12;;;;;;;13.07;9.80;;;;;;;-146.29;100.00;59205.81;5052570;28;20184;-72
2024/03/02 08:20:37;;;;;;;11.90;9.20;;;;;;;-146.29;100.00;59205.81;5032526;28;20208;-72
2024/03/02 08:23:03;;;;;;;12.23;9.77;;;;;;;-146.29;100.00;59205.81;5027896;28;20172;-71
2024/03/02 08:25:29;;;;;;;16.07;9.73;;;;;;;-146.29;100.00;59205.81;5028974;28;20664;-70
2024/03/02 08:27:54;;;;;;;11.40;8.93;;;;;;;-146.29;100.00;59205.81;5038027;28;20270;-72
2024/03/02 08:30:19;;;;;;;11.77;8.97;;;;;;;-146.29;100.00;59205.81;5028973;28;20215;-71
2024/03/02 08:32:47;;;;;;;9.67;8.30;;;;;;;-146.29;100.00;59205.81;5029837;28;20671;-71
2024/03/02 08:35:12;;;;;;;11.43;8.07;;;;;;;-146.29;100.00;59205.81;5040259;28;20237;-71
2024/03/02 08:37:39;;;;;;;10.10;8.10;;;;;;;-146.29;100.00;59205.81;5035385;28;20422;-71
2024/03/02 08:40:07;;;;;;;12.07;8.97;;;;;;;-146.29;100.00;59205.81;5028077;28;20227;-72
2024/03/02 08:42:32;;;;;;;11.53;8.50;;;;;;;-146.29;100.00;59205.81;5027238;28;20431;-71
2024/03/02 08:45:00;;;;;;;12.53;7.90;;;;;;;-146.29;100.00;59205.81;5039385;28;20491;-72
2024/03/02 08:47:26;;;;;;;8.70;7.10;;;;;;;-146.29;100.00;59205.81;5028811;28;20194;-71
2024/03/02 08:49:52;;;;;;;10.80;7.90;;;;;;;-146.29;100.00;59205.81;5032111;28;20533;-71
2024/03/02 08:52:17;;;;;;;9.07;7.40;;;;;;;-146.29;100.00;59205.81;5028356;28;20557;-71
2024/03/02 08:54:43;;;;;;;10.13;8.17;;;;;;;-146.29;100.00;59205.81;5034176;28;20192;-71
2024/03/02 08:57:08;;;;;;;8.33;6.80;;;;;;;-146.29;100.00;59205.81;5030522;28;20199;-71
2024/03/02 08:59:34;;;;;;;11.33;8.63;;;;;;;-146.29;100.00;59205.81;5035297;28;20211;-71
2024/03/02 09:01:59;;;;;;;10.93;7.60;;;;;;;-146.29;100.00;59205.81;5028134;28;20256;-71
2024/03/02 09:04:25;;;;;;;10.30;6.47;;;;;;;-146.29;100.00;59205.81;5033962;28;20559;-70
2024/03/02 09:06:50;;;;;;;8.30;6.63;;;;;;;-146.29;100.00;59205.81;5026648;28;20223;-70
2024/03/02 09:09:16;;;;;;;8.90;6.10;;;;;;;-146.29;100.00;59205.81;5038004;28;20278;-72
2024/03/02 09:11:41;;;;;;;9.83;6.17;;;;;;;-146.29;100.00;59205.81;5027563;28;20814;-71
2024/03/02 09:14:07;;;;;;;6.80;6.10;;;;;;;-146.29;100.00;59205.81;5035046;28;20206;-71
2024/03/02 09:16:32;;;;;;;6.60;5.90;;;;;;;-146.29;100.00;59205.81;5030435;28;20207;-72
2024/03/02 09:18:58;;;;;;;7.20;6.40;;;;;;;-146.29;100.00;59205.81;5027702;28;20192;-73
2024/03/02 09:21:25;;;;;;;6.60;5.90;;;;;;;-146.29;100.00;59205.81;5026737;28;20212;-71
2024/03/02 09:23:51;;;;;;;6.50;5.63;;;;;;;-146.29;100.00;59205.81;5050369;28;20639;-72
2024/03/02 09:26:19;;;;;;;6.60;5.20;;;;;;;-146.29;100.00;59205.81;5030373;28;20426;-73
2024/03/02 09:28:45;;;;;;;6.70;5.50;;;;;;;-146.29;100.00;59205.81;5027724;28;20267;-71
2024/03/02 09:31:11;;;;;;;5.30;4.80;;;;;;;-146.29;100.00;59205.81;5030760;28;20534;-71
2024/03/02 09:33:38;;;;;;;6.13;4.80;;;;;;;-146.29;100.00;59205.81;5027814;28;20192;-70
2024/03/02 09:36:06;;;;;;;7.50;4.90;;;;;;;-146.29;100.00;59205.81;5031305;28;20429;-70
2024/03/02 09:38:34;;;;;;;5.00;4.50;;;;;;;-146.29;100.00;59205.81;5001853;28;20421;-70
2024/03/02 09:41:00;;;;;;;5.50;4.90;;;;;;;-146.29;100.00;59205.81;5026542;28;20481;-71
2024/03/02 09:43:26;;;;;;;7.07;4.67;;;;;;;-146.29;100.00;59205.81;5027171;28;20183;-71
2024/03/02 09:45:52;;;;;;;6.80;4.03;;;;;;;-146.29;100.00;59205.81;5043208;28;20973;-71
2024/03/02 09:48:18;;;;;;;7.53;4.57;;;;;;;-146.29;100.00;59205.81;5027855;28;20195;-72
2024/03/02 09:50:44;;;;;;;5.10;4.60;;;;;;;-146.29;100.00;59205.81;5012889;28;20846;-71
2024/03/02 09:53:10;;;;;;;5.53;4.30;;;;;;;-146.29;100.00;59205.81;5028543;28;20441;-71
2024/03/02 09:55:35;;;;;;;5.27;4.37;;;;;;;-146.29;100.00;59205.81;5029449;28;20194;-70
2024/03/02 09:58:01;;;;;;;5.10;4.23;;;;;;;-146.29;100.00;59205.81;5026202;28;20423;-71
2024/03/02 10:00:26;;;;;;;4.10;3.70;;;;;;;-146.29;100.00;59205.81;5034713;28;20298;-70
2024/03/02 10:02:52;;;;;;;4.20;3.80;;;;;;;-146.29;100.00;59205.81;5031210;28;20179;-69
2024/03/02 10:05:30;;;;;;;4.53;3.63;;;;;;;-146.29;100.00;59205.81;5034070;28;20625;-72
2024/03/02 10:08:02;;;;;;;4.80;3.20;;;;;;;-146.29;100.00;59205.81;5034631;28;20206;-71
2024/03/02 10:10:36;;;;;;;4.60;4.20;;;;;;;-146.29;100.00;59205.81;5038276;28;20951;-69
2024/03/02 10:13:07;;;;;;;4.50;4.10;;;;;;;-146.29;100.00;59205.81;5033592;28;20438;-69
2024/03/02 10:15:33;;;;;;;4.23;3.83;;;;;;;-146.29;100.00;59205.81;5027251;28;20564;-69
2024/03/02 10:17:59;;;;;;;3.60;3.30;;;;;;;-146.29;100.00;59205.81;5026189;28;20525;-71
2024/03/02 10:20:32;;;;;;;4.27;3.77;;;;;;;-146.29;100.00;59205.81;5042578;28;20638;-69
2024/03/02 10:23:30;;;;;;;5.10;3.47;;;;;;;-146.29;100.00;59205.81;5043909;28;20194;-69
2024/03/02 10:25:56;;;;;;;4.93;3.93;;;;;;;-146.29;100.00;59205.81;5015051;28;20990;-72
2024/03/02 10:28:21;;;;;;;4.27;3.80;;;;;;;-146.29;100.00;59205.81;5026951;28;20427;-69
2024/03/02 10:30:48;;;;;;;4.00;3.60;;;;;;;-146.29;100.00;59205.81;5028798;28;20207;-71
2024/03/02 10:33:14;;;;;;;7.10;5.50;;;;;;;-146.29;100.00;59205.81;5034016;28;20652;-69
2024/03/02 10:35:40;;;;;;;4.17;3.77;;;;;;;-146.29;100.00;59205.81;5026788;28;20441;-71
2024/03/02 10:38:06;;;;;;;6.20;2.80;;;;;;;-146.29;100.00;59205.81;5030565;28;20317;-71
2024/03/02 10:40:32;;;;;;;2.87;2.67;;;;;;;-146.29;100.00;59205.81;5009902;28;20812;-70
2024/03/02 10:42:59;;;;;;;3.10;2.80;;;;;;;-146.29;100.00;59205.81;5025674;28;20430;-72
2024/03/02 10:45:24;;;;;;;3.20;2.70;;;;;;;-146.29;100.00;59205.81;5031034;28;20985;-73
2024/03/02 10:47:51;;;;;;;2.93;2.67;;;;;;;-146.29;100.00;59205.81;5028524;28;20430;-73
2024/03/02 10:50:16;;;;;;;3.57;3.00;;;;;;;-146.29;100.00;59205.81;5030695;28;20669;-73
2024/03/02 10:52:42;;;;;;;2.70;2.50;;;;;;;-146.29;100.00;59205.81;5030958;28;20512;-72
2024/03/02 10:55:09;;;;;;;3.97;2.27;;;;;;;-146.29;100.00;59205.81;5031295;28;20306;-72
2024/03/02 10:57:51;;;;;;;2.50;2.30;;;;;;;-146.29;100.00;59205.81;5030831;28;20191;-70
2024/03/02 11:00:19;;;;;;;2.77;2.00;;;;;;;-146.29;100.00;59205.81;5030528;28;20548;-70